createdAt,value
2017-11-13T00:00:07.899Z,997.0
2017-11-13T00:01:09.322Z,997.0
2017-11-13T00:02:10.723Z,997.0
2017-11-13T00:03:12.105Z,997.0
2017-11-13T00:04:13.493Z,997.0
2017-11-13T00:05:14.881Z,997.0
2017-11-13T00:06:16.269Z,997.1
2017-11-13T00:07:17.659Z,997.1
2017-11-13T00:08:19.047Z,997.0
2017-11-13T00:09:20.437Z,997.1
2017-11-13T00:10:21.865Z,997.1
2017-11-13T00:11:23.226Z,997.1
2017-11-13T00:12:24.617Z,997.1
2017-11-13T00:13:26.006Z,997.1
2017-11-13T00:14:27.399Z,997.1
2017-11-13T00:15:28.790Z,997.1
2017-11-13T00:16:30.182Z,997.2
2017-11-13T00:17:31.575Z,997.2
2017-11-13T00:18:32.961Z,997.3
2017-11-13T00:19:34.346Z,997.3
2017-11-13T00:20:35.745Z,997.3
2017-11-13T00:21:37.138Z,997.2
2017-11-13T00:22:38.526Z,997.3
2017-11-13T00:23:39.917Z,997.3
2017-11-13T00:24:41.307Z,997.3
2017-11-13T00:25:42.700Z,997.3
2017-11-13T00:26:44.086Z,997.3
2017-11-13T00:27:45.476Z,997.3
2017-11-13T00:28:46.869Z,997.3
2017-11-13T00:29:48.264Z,997.4
2017-11-13T00:30:49.661Z,997.3
2017-11-13T00:31:51.073Z,997.4
2017-11-13T00:32:52.441Z,997.4
2017-11-13T00:33:53.829Z,997.4
2017-11-13T00:34:55.222Z,997.4
2017-11-13T00:35:56.619Z,997.4
2017-11-13T00:36:58.009Z,997.4
2017-11-13T00:37:59.402Z,997.4
2017-11-13T00:39:00.793Z,997.4
2017-11-13T00:40:02.182Z,997.4
2017-11-13T00:41:03.570Z,997.4
2017-11-13T00:42:04.958Z,997.5
2017-11-13T00:43:06.352Z,997.5
2017-11-13T00:44:07.737Z,997.5
2017-11-13T00:45:09.132Z,997.5
2017-11-13T00:46:10.525Z,997.6
2017-11-13T00:47:11.918Z,997.5
2017-11-13T00:48:13.313Z,997.6
2017-11-13T00:49:14.701Z,997.6
2017-11-13T00:50:16.092Z,997.5
2017-11-13T00:51:17.481Z,997.5
2017-11-13T00:52:18.872Z,997.5
2017-11-13T00:53:20.260Z,997.5
2017-11-13T00:54:21.653Z,997.6
2017-11-13T00:55:23.039Z,997.6
2017-11-13T00:56:24.429Z,997.6
2017-11-13T00:57:25.817Z,997.5
2017-11-13T00:58:27.212Z,997.6
2017-11-13T00:59:28.599Z,997.6
2017-11-13T01:00:29.991Z,997.6
2017-11-13T01:01:31.390Z,997.6
2017-11-13T01:02:32.767Z,997.6
2017-11-13T01:03:34.162Z,997.6
2017-11-13T01:04:35.555Z,997.7
2017-11-13T01:05:36.952Z,997.7
2017-11-13T01:06:38.340Z,997.7
2017-11-13T01:07:39.731Z,997.7
2017-11-13T01:08:41.117Z,997.8
2017-11-13T01:09:42.506Z,997.8
2017-11-13T01:10:43.900Z,997.8
2017-11-13T01:11:45.292Z,997.9
2017-11-13T01:12:46.677Z,997.9
2017-11-13T01:13:48.068Z,997.9
2017-11-13T01:14:49.458Z,997.9
2017-11-13T01:15:50.847Z,997.9
2017-11-13T01:16:52.233Z,997.9
2017-11-13T01:17:53.621Z,997.9
2017-11-13T01:18:55.068Z,997.9
2017-11-13T01:19:56.460Z,997.9
2017-11-13T01:20:57.852Z,997.9
2017-11-13T01:21:59.249Z,997.9
2017-11-13T01:23:00.634Z,997.9
2017-11-13T01:24:02.022Z,997.9
2017-11-13T01:25:03.433Z,997.9
2017-11-13T01:26:04.803Z,997.9
2017-11-13T01:27:06.193Z,998.0
2017-11-13T01:28:07.585Z,997.9
2017-11-13T01:29:08.974Z,997.9
2017-11-13T01:30:10.362Z,997.9
2017-11-13T01:31:11.753Z,997.9
2017-11-13T01:32:13.140Z,997.9
2017-11-13T01:33:14.530Z,997.9
2017-11-13T01:34:15.923Z,998.1
2017-11-13T01:35:17.316Z,998.1
2017-11-13T01:36:18.706Z,998.1
2017-11-13T01:37:20.095Z,998.1
2017-11-13T01:38:21.498Z,998.1
2017-11-13T01:39:22.891Z,998.2
2017-11-13T01:40:24.280Z,998.2
2017-11-13T01:41:25.670Z,998.1
2017-11-13T01:42:27.062Z,998.2
2017-11-13T01:43:28.452Z,998.2
2017-11-13T01:44:29.870Z,998.1
2017-11-13T01:45:31.232Z,998.2
2017-11-13T01:46:32.625Z,998.2
2017-11-13T01:47:34.015Z,998.2
2017-11-13T01:48:35.412Z,998.2
2017-11-13T01:49:36.804Z,998.2
2017-11-13T01:50:38.194Z,998.3
2017-11-13T01:51:39.579Z,998.3
2017-11-13T01:52:40.968Z,998.2
2017-11-13T01:53:42.360Z,998.2
2017-11-13T01:54:43.752Z,998.2
2017-11-13T01:55:45.682Z,998.3
2017-11-13T01:56:47.073Z,998.3
2017-11-13T01:57:48.464Z,998.3
2017-11-13T01:58:49.852Z,998.4
2017-11-13T01:59:51.237Z,998.3
2017-11-13T02:00:52.629Z,998.4
2017-11-13T02:01:54.019Z,998.4
2017-11-13T02:02:55.409Z,998.4
2017-11-13T02:03:56.801Z,998.4
2017-11-13T02:04:58.193Z,998.3
2017-11-13T02:05:59.583Z,998.3
2017-11-13T02:07:00.969Z,998.4
2017-11-13T02:08:02.359Z,998.4
2017-11-13T02:09:03.762Z,998.4
2017-11-13T02:10:05.149Z,998.4
2017-11-13T02:11:06.537Z,998.4
2017-11-13T02:12:07.934Z,998.4
2017-11-13T02:13:09.329Z,998.5
2017-11-13T02:14:10.725Z,998.6
2017-11-13T02:15:12.113Z,998.6
2017-11-13T02:16:13.505Z,998.6
2017-11-13T02:17:14.891Z,998.5
2017-11-13T02:18:16.290Z,998.5
2017-11-13T02:19:17.676Z,998.5
2017-11-13T02:20:19.065Z,998.5
2017-11-13T02:21:20.454Z,998.5
2017-11-13T02:22:21.842Z,998.6
2017-11-13T02:23:23.231Z,998.6
2017-11-13T02:24:24.621Z,998.6
2017-11-13T02:25:26.014Z,998.6
2017-11-13T02:26:27.402Z,998.7
2017-11-13T02:27:28.789Z,998.7
2017-11-13T02:28:30.180Z,998.7
2017-11-13T02:29:31.573Z,998.7
2017-11-13T02:30:32.966Z,998.7
2017-11-13T02:31:34.364Z,998.7
2017-11-13T02:32:35.755Z,998.7
2017-11-13T02:33:37.147Z,998.8
2017-11-13T02:34:38.540Z,998.8
2017-11-13T02:35:39.930Z,998.8
2017-11-13T02:36:41.319Z,998.8
2017-11-13T02:37:42.708Z,998.8
2017-11-13T02:38:44.104Z,998.8
2017-11-13T02:39:45.494Z,998.8
2017-11-13T02:40:46.887Z,998.8
2017-11-13T02:41:48.271Z,998.8
2017-11-13T02:42:49.663Z,998.9
2017-11-13T02:43:51.054Z,998.9
2017-11-13T02:44:52.442Z,998.8
2017-11-13T02:45:53.852Z,998.8
2017-11-13T02:46:55.238Z,998.8
2017-11-13T02:47:56.627Z,998.8
2017-11-13T02:48:58.016Z,998.8
2017-11-13T02:49:59.402Z,998.9
2017-11-13T02:51:00.790Z,998.9
2017-11-13T02:52:02.181Z,998.9
2017-11-13T02:53:03.572Z,999.0
2017-11-13T02:54:04.961Z,999.0
2017-11-13T02:55:06.355Z,999.0
2017-11-13T02:56:07.738Z,999.0
2017-11-13T02:57:09.129Z,999.0
2017-11-13T02:58:10.521Z,999.0
2017-11-13T02:59:11.912Z,999.0
2017-11-13T03:00:13.368Z,998.9
2017-11-13T03:01:14.760Z,999.1
2017-11-13T03:02:16.152Z,999.1
2017-11-13T03:03:18.509Z,999.1
2017-11-13T03:04:19.901Z,999.2
2017-11-13T03:05:21.288Z,999.1
2017-11-13T03:06:22.679Z,999.2
2017-11-13T03:07:24.076Z,999.2
2017-11-13T03:08:25.469Z,999.2
2017-11-13T03:09:26.859Z,999.2
2017-11-13T03:10:28.245Z,999.2
2017-11-13T03:11:29.638Z,999.3
2017-11-13T03:12:31.027Z,999.3
2017-11-13T03:13:32.416Z,999.3
2017-11-13T03:14:33.808Z,999.3
2017-11-13T03:15:35.198Z,999.2
2017-11-13T03:16:36.589Z,999.1
2017-11-13T03:17:37.976Z,999.3
2017-11-13T03:18:39.365Z,999.2
2017-11-13T03:19:40.760Z,999.3
2017-11-13T03:20:42.151Z,999.3
2017-11-13T03:21:43.546Z,999.4
2017-11-13T03:22:44.946Z,999.3
2017-11-13T03:23:46.329Z,999.4
2017-11-13T03:24:47.718Z,999.4
2017-11-13T03:25:49.107Z,999.4
2017-11-13T03:26:50.502Z,999.5
2017-11-13T03:27:51.897Z,999.5
2017-11-13T03:28:53.285Z,999.5
2017-11-13T03:29:54.683Z,999.5
2017-11-13T03:30:56.080Z,999.5
2017-11-13T03:31:57.465Z,999.5
2017-11-13T03:32:58.855Z,999.5
2017-11-13T03:34:00.245Z,999.6
2017-11-13T03:35:01.636Z,999.6
2017-11-13T03:36:03.023Z,999.6
2017-11-13T03:37:04.417Z,999.6
2017-11-13T03:38:05.809Z,999.6
2017-11-13T03:39:07.203Z,999.6
2017-11-13T03:40:08.589Z,999.6
2017-11-13T03:41:09.987Z,999.6
2017-11-13T03:42:11.373Z,999.7
2017-11-13T03:43:12.760Z,999.6
2017-11-13T03:44:14.159Z,999.7
2017-11-13T03:45:15.549Z,999.7
2017-11-13T03:46:16.939Z,999.7
2017-11-13T03:47:18.357Z,999.7
2017-11-13T03:48:19.717Z,999.7
2017-11-13T03:49:21.114Z,999.8
2017-11-13T03:50:22.510Z,999.8
2017-11-13T03:51:23.899Z,999.7
2017-11-13T03:52:25.300Z,999.8
2017-11-13T03:53:28.550Z,999.7
2017-11-13T03:54:29.942Z,999.8
2017-11-13T03:55:31.333Z,999.8
2017-11-13T03:56:32.724Z,999.8
2017-11-13T03:57:34.115Z,999.9
2017-11-13T03:58:35.508Z,999.9
2017-11-13T03:59:36.900Z,999.9
2017-11-13T04:00:38.286Z,1000.0
2017-11-13T04:01:39.678Z,1000.0
2017-11-13T04:02:41.069Z,1000.0
2017-11-13T04:03:42.468Z,1000.0
2017-11-13T04:04:43.853Z,1000.0
2017-11-13T04:05:45.244Z,999.9
2017-11-13T04:06:46.633Z,999.9
2017-11-13T04:07:48.028Z,999.9
2017-11-13T04:08:49.416Z,999.9
2017-11-13T04:09:50.805Z,999.9
2017-11-13T04:10:52.205Z,1000.0
2017-11-13T04:11:53.598Z,1000.0
2017-11-13T04:12:54.994Z,1000.0
2017-11-13T04:13:56.385Z,1000.0
2017-11-13T04:14:57.773Z,1000.0
2017-11-13T04:15:59.161Z,1000.1
2017-11-13T04:17:00.562Z,1000.1
2017-11-13T04:18:01.954Z,1000.1
2017-11-13T04:19:03.343Z,1000.1
2017-11-13T04:20:04.738Z,1000.2
2017-11-13T04:21:06.126Z,1000.2
2017-11-13T04:22:07.513Z,1000.3
2017-11-13T04:23:08.905Z,1000.2
2017-11-13T04:24:10.294Z,1000.3
2017-11-13T04:25:11.683Z,1000.3
2017-11-13T04:26:13.073Z,1000.4
2017-11-13T04:27:14.465Z,1000.4
2017-11-13T04:28:17.693Z,1000.4
2017-11-13T04:29:19.084Z,1000.4
2017-11-13T04:30:20.478Z,1000.5
2017-11-13T04:31:21.866Z,1000.4
2017-11-13T04:32:23.259Z,1000.5
2017-11-13T04:33:24.652Z,1000.5
2017-11-13T04:34:26.070Z,1000.5
2017-11-13T04:35:27.448Z,1000.5
2017-11-13T04:36:28.838Z,1000.4
2017-11-13T04:37:30.226Z,1000.5
2017-11-13T04:38:31.620Z,1000.5
2017-11-13T04:39:33.010Z,1000.5
2017-11-13T04:40:34.402Z,1000.5
2017-11-13T04:41:35.797Z,1000.5
2017-11-13T04:42:37.189Z,1000.5
2017-11-13T04:43:38.577Z,1000.5
2017-11-13T04:44:39.979Z,1000.5
2017-11-13T04:45:41.371Z,1000.5
2017-11-13T04:46:42.765Z,1000.5
2017-11-13T04:47:44.157Z,1000.6
2017-11-13T04:48:45.549Z,1000.6
2017-11-13T04:49:46.942Z,1000.6
2017-11-13T04:50:48.333Z,1000.6
2017-11-13T04:51:49.724Z,1000.6
2017-11-13T04:52:51.113Z,1000.6
2017-11-13T04:53:52.510Z,1000.6
2017-11-13T04:54:53.906Z,1000.7
2017-11-13T04:55:55.290Z,1000.7
2017-11-13T04:56:56.683Z,1000.7
2017-11-13T04:57:58.072Z,1000.7
2017-11-13T04:58:59.464Z,1000.8
2017-11-13T05:00:00.862Z,1000.7
2017-11-13T05:01:02.259Z,1000.8
2017-11-13T05:02:03.656Z,1000.8
2017-11-13T05:03:05.051Z,1000.8
2017-11-13T05:04:06.447Z,1000.9
2017-11-13T05:05:07.838Z,1000.9
2017-11-13T05:06:09.227Z,1000.9
2017-11-13T05:07:10.618Z,1001.0
2017-11-13T05:08:12.011Z,1001.0
2017-11-13T05:09:13.397Z,1001.0
2017-11-13T05:10:14.789Z,1001.1
2017-11-13T05:11:16.187Z,1001.1
2017-11-13T05:12:17.576Z,1001.1
2017-11-13T05:13:18.967Z,1001.1
2017-11-13T05:14:20.357Z,1001.1
2017-11-13T05:15:21.746Z,1001.1
2017-11-13T05:16:23.305Z,1001.1
2017-11-13T05:17:24.694Z,1001.1
2017-11-13T05:18:26.090Z,1001.1
2017-11-13T05:19:27.480Z,1001.1
2017-11-13T05:20:28.878Z,1001.2
2017-11-13T05:21:30.268Z,1001.2
2017-11-13T05:22:31.662Z,1001.1
2017-11-13T05:23:33.051Z,1001.2
2017-11-13T05:24:34.444Z,1001.2
2017-11-13T05:25:35.857Z,1001.2
2017-11-13T05:26:37.236Z,1001.2
2017-11-13T05:27:38.631Z,1001.2
2017-11-13T05:28:40.021Z,1001.2
2017-11-13T05:29:41.489Z,1001.2
2017-11-13T05:30:42.885Z,1001.2
2017-11-13T05:31:44.278Z,1001.2
2017-11-13T05:32:45.672Z,1001.2
2017-11-13T05:33:47.059Z,1001.2
2017-11-13T05:34:48.449Z,1001.2
2017-11-13T05:35:49.845Z,1001.3
2017-11-13T05:36:51.259Z,1001.3
2017-11-13T05:37:52.636Z,1001.3
2017-11-13T05:38:54.029Z,1001.3
2017-11-13T05:39:55.421Z,1001.4
2017-11-13T05:40:56.811Z,1001.4
2017-11-13T05:41:58.206Z,1001.4
2017-11-13T05:42:59.594Z,1001.4
2017-11-13T05:44:01.019Z,1001.4
2017-11-13T05:45:02.409Z,1001.5
2017-11-13T05:46:03.803Z,1001.5
2017-11-13T05:47:05.196Z,1001.6
2017-11-13T05:48:06.595Z,1001.6
2017-11-13T05:49:07.976Z,1001.6
2017-11-13T05:50:09.367Z,1001.7
2017-11-13T05:51:10.759Z,1001.7
2017-11-13T05:52:12.150Z,1001.8
2017-11-13T05:53:13.545Z,1001.8
2017-11-13T05:54:14.941Z,1001.8
2017-11-13T05:55:16.328Z,1001.8
2017-11-13T05:56:17.729Z,1001.8
2017-11-13T05:57:19.120Z,1001.8
2017-11-13T05:58:20.510Z,1001.7
2017-11-13T05:59:21.905Z,1001.8
2017-11-13T06:00:23.299Z,1001.7
2017-11-13T06:01:24.693Z,1001.7
2017-11-13T06:02:26.081Z,1001.7
2017-11-13T06:03:27.472Z,1001.8
2017-11-13T06:04:28.872Z,1001.8
2017-11-13T06:05:30.251Z,1001.7
2017-11-13T06:06:31.644Z,1001.7
2017-11-13T06:07:33.036Z,1001.7
2017-11-13T06:08:34.429Z,1001.8
2017-11-13T06:09:38.370Z,1001.8
2017-11-13T06:10:39.766Z,1001.9
2017-11-13T06:11:41.157Z,1001.9
2017-11-13T06:12:42.593Z,1001.8
2017-11-13T06:13:44.002Z,1001.9
2017-11-13T06:14:45.382Z,1001.9
2017-11-13T06:15:46.775Z,1001.9
2017-11-13T06:16:48.167Z,1001.9
2017-11-13T06:17:49.557Z,1001.9
2017-11-13T06:18:50.947Z,1001.9
2017-11-13T06:19:52.337Z,1001.9
2017-11-13T06:20:53.729Z,1001.9
2017-11-13T06:21:55.119Z,1001.8
2017-11-13T06:22:56.512Z,1001.8
2017-11-13T06:23:57.900Z,1001.8
2017-11-13T06:24:59.295Z,1001.9
2017-11-13T06:26:00.684Z,1001.9
2017-11-13T06:27:02.078Z,1001.9
2017-11-13T06:28:03.479Z,1002.0
2017-11-13T06:29:04.874Z,1002.0
2017-11-13T06:30:06.267Z,1002.0
2017-11-13T06:31:07.665Z,1002.1
2017-11-13T06:32:09.057Z,1002.1
2017-11-13T06:33:10.452Z,1002.1
2017-11-13T06:34:11.841Z,1002.1
2017-11-13T06:35:13.233Z,1002.1
2017-11-13T06:36:14.627Z,1002.2
2017-11-13T06:37:16.019Z,1002.2
2017-11-13T06:38:17.409Z,1002.2
2017-11-13T06:39:18.813Z,1002.3
2017-11-13T06:40:20.190Z,1002.2
2017-11-13T06:41:21.581Z,1002.3
2017-11-13T06:42:22.974Z,1002.2
2017-11-13T06:43:24.365Z,1002.2
2017-11-13T06:44:28.289Z,1002.2
2017-11-13T06:45:29.681Z,1002.2
2017-11-13T06:46:31.082Z,1002.2
2017-11-13T06:47:32.473Z,1002.3
2017-11-13T06:48:33.863Z,1002.3
2017-11-13T06:49:35.257Z,1002.3
2017-11-13T06:50:36.651Z,1002.3
2017-11-13T06:51:38.046Z,1002.3
2017-11-13T06:52:39.436Z,1002.4
2017-11-13T06:53:40.829Z,1002.4
2017-11-13T06:54:42.242Z,1002.5
2017-11-13T06:55:43.616Z,1002.5
2017-11-13T06:56:45.012Z,1002.5
2017-11-13T06:57:46.405Z,1002.5
2017-11-13T06:58:47.807Z,1002.5
2017-11-13T06:59:49.196Z,1002.5
2017-11-13T07:00:50.589Z,1002.5
2017-11-13T07:01:51.982Z,1002.6
2017-11-13T07:02:53.371Z,1002.6
2017-11-13T07:03:54.776Z,1002.6
2017-11-13T07:04:56.162Z,1002.6
2017-11-13T07:05:57.558Z,1002.7
2017-11-13T07:06:58.950Z,1002.7
2017-11-13T07:08:00.341Z,1002.7
2017-11-13T07:09:01.732Z,1002.7
2017-11-13T07:10:03.123Z,1002.7
2017-11-13T07:11:04.520Z,1002.7
2017-11-13T07:12:05.918Z,1002.7
2017-11-13T07:13:07.316Z,1002.7
2017-11-13T07:14:08.705Z,1002.8
2017-11-13T07:15:10.110Z,1002.8
2017-11-13T07:16:11.496Z,1002.8
2017-11-13T07:17:12.892Z,1002.8
2017-11-13T07:18:14.293Z,1002.8
2017-11-13T07:19:18.166Z,1002.8
2017-11-13T07:20:19.560Z,1002.8
2017-11-13T07:21:20.955Z,1002.9
2017-11-13T07:22:22.346Z,1002.9
2017-11-13T07:23:23.741Z,1002.9
2017-11-13T07:24:25.141Z,1002.9
2017-11-13T07:25:26.537Z,1002.9
2017-11-13T07:26:27.935Z,1002.9
2017-11-13T07:27:29.333Z,1003.0
2017-11-13T07:28:30.728Z,1003.0
2017-11-13T07:29:32.118Z,1003.0
2017-11-13T07:30:33.513Z,1003.0
2017-11-13T07:31:34.906Z,1003.0
2017-11-13T07:32:36.331Z,1003.0
2017-11-13T07:33:37.697Z,1003.0
2017-11-13T07:34:39.097Z,1003.0
2017-11-13T07:35:40.494Z,1003.0
2017-11-13T07:36:41.891Z,1003.1
2017-11-13T07:37:43.285Z,1003.1
2017-11-13T07:38:44.679Z,1003.0
2017-11-13T07:39:46.073Z,1003.0
2017-11-13T07:40:47.469Z,1003.1
2017-11-13T07:41:48.868Z,1003.1
2017-11-13T07:42:50.265Z,1003.2
2017-11-13T07:43:51.662Z,1003.2
2017-11-13T07:44:53.078Z,1003.2
2017-11-13T07:45:54.448Z,1003.3
2017-11-13T07:46:55.844Z,1003.3
2017-11-13T07:47:57.238Z,1003.3
2017-11-13T07:48:58.636Z,1003.3
2017-11-13T07:50:00.041Z,1003.4
2017-11-13T07:51:01.435Z,1003.4
2017-11-13T07:52:02.835Z,1003.4
2017-11-13T07:53:04.234Z,1003.5
2017-11-13T07:54:05.732Z,1003.4
2017-11-13T07:55:07.128Z,1003.4
2017-11-13T07:56:08.528Z,1003.5
2017-11-13T07:57:09.918Z,1003.5
2017-11-13T07:58:11.312Z,1003.4
2017-11-13T07:59:12.705Z,1003.5
2017-11-13T08:00:14.101Z,1003.5
2017-11-13T08:01:15.496Z,1003.4
2017-11-13T08:02:16.893Z,1003.5
2017-11-13T08:03:18.292Z,1003.5
2017-11-13T08:04:19.685Z,1003.5
2017-11-13T08:05:21.086Z,1003.4
2017-11-13T08:06:22.503Z,1003.5
2017-11-13T08:07:23.874Z,1003.5
2017-11-13T08:08:26.027Z,1003.6
2017-11-13T08:09:27.498Z,1003.6
2017-11-13T08:10:28.922Z,1003.6
2017-11-13T08:11:30.318Z,1003.6
2017-11-13T08:12:31.710Z,1003.6
2017-11-13T08:13:33.122Z,1003.6
2017-11-13T08:14:34.508Z,1003.6
2017-11-13T08:15:35.905Z,1003.7
2017-11-13T08:16:37.331Z,1003.6
2017-11-13T08:17:38.730Z,1003.7
2017-11-13T08:18:40.123Z,1003.7
2017-11-13T08:19:41.520Z,1003.7
2017-11-13T08:20:42.913Z,1003.7
2017-11-13T08:21:44.307Z,1003.7
2017-11-13T08:22:45.703Z,1003.7
2017-11-13T08:23:47.101Z,1003.7
2017-11-13T08:24:48.495Z,1003.7
2017-11-13T08:25:49.895Z,1003.7
2017-11-13T08:26:51.292Z,1003.7
2017-11-13T08:27:52.696Z,1003.8
2017-11-13T08:28:54.098Z,1003.8
2017-11-13T08:29:55.492Z,1003.8
2017-11-13T08:30:56.896Z,1003.8
2017-11-13T08:31:58.294Z,1003.8
2017-11-13T08:32:59.691Z,1003.8
2017-11-13T08:34:01.087Z,1003.8
2017-11-13T08:35:02.489Z,1003.8
2017-11-13T08:36:03.914Z,1003.8
2017-11-13T08:37:05.305Z,1003.8
2017-11-13T08:38:06.704Z,1003.8
2017-11-13T08:39:08.101Z,1003.8
2017-11-13T08:40:09.493Z,1003.8
2017-11-13T08:41:10.891Z,1003.8
2017-11-13T08:42:12.287Z,1003.9
2017-11-13T08:43:13.683Z,1003.9
2017-11-13T08:44:15.082Z,1003.9
2017-11-13T08:45:16.479Z,1003.9
2017-11-13T08:46:17.876Z,1003.9
2017-11-13T08:47:19.268Z,1004.0
2017-11-13T08:48:20.661Z,1004.0
2017-11-13T08:49:22.062Z,1004.0
2017-11-13T08:50:23.486Z,1004.0
2017-11-13T08:51:24.885Z,1004.1
2017-11-13T08:52:26.280Z,1004.0
2017-11-13T08:53:27.706Z,1004.0
2017-11-13T08:54:29.081Z,1004.1
2017-11-13T08:55:30.503Z,1004.1
2017-11-13T08:56:31.917Z,1004.1
2017-11-13T08:57:33.312Z,1004.1
2017-11-13T08:58:34.712Z,1004.2
2017-11-13T08:59:38.469Z,1004.2
2017-11-13T09:00:39.891Z,1004.2
2017-11-13T09:01:41.293Z,1004.1
2017-11-13T09:02:42.741Z,1004.1
2017-11-13T09:03:44.221Z,1004.2
2017-11-13T09:04:45.620Z,1004.2
2017-11-13T09:05:47.025Z,1004.2
2017-11-13T09:06:48.428Z,1004.3
2017-11-13T09:07:49.821Z,1004.3
2017-11-13T09:08:51.219Z,1004.3
2017-11-13T09:09:52.679Z,1004.2
2017-11-13T09:10:54.080Z,1004.3
2017-11-13T09:11:55.476Z,1004.3
2017-11-13T09:12:56.937Z,1004.3
2017-11-13T09:13:58.336Z,1004.3
2017-11-13T09:14:59.740Z,1004.4
2017-11-13T09:16:01.147Z,1004.2
2017-11-13T09:17:02.548Z,1004.4
2017-11-13T09:18:03.953Z,1004.4
2017-11-13T09:19:05.354Z,1004.3
2017-11-13T09:20:06.748Z,1004.3
2017-11-13T09:21:08.150Z,1004.3
2017-11-13T09:22:09.554Z,1004.3
2017-11-13T09:23:10.952Z,1004.4
2017-11-13T09:24:12.347Z,1004.4
2017-11-13T09:25:13.742Z,1004.4
2017-11-13T09:26:15.138Z,1004.4
2017-11-13T09:27:16.534Z,1004.4
2017-11-13T09:28:17.932Z,1004.4
2017-11-13T09:29:19.332Z,1004.4
2017-11-13T09:30:20.729Z,1004.4
2017-11-13T09:31:22.129Z,1004.5
2017-11-13T09:32:23.530Z,1004.5
2017-11-13T09:33:24.930Z,1004.4
2017-11-13T09:34:27.145Z,1004.5
2017-11-13T09:35:28.553Z,1004.5
2017-11-13T09:36:29.954Z,1004.5
2017-11-13T09:37:31.351Z,1004.5
2017-11-13T09:38:32.750Z,1004.6
2017-11-13T09:39:34.146Z,1004.7
2017-11-13T09:40:35.553Z,1004.6
2017-11-13T09:41:36.955Z,1004.7
2017-11-13T09:42:38.354Z,1004.7
2017-11-13T09:43:39.750Z,1004.6
2017-11-13T09:44:41.147Z,1004.6
2017-11-13T09:45:42.545Z,1004.7
2017-11-13T09:46:43.945Z,1004.7
2017-11-13T09:47:45.347Z,1004.7
2017-11-13T09:48:46.743Z,1004.8
2017-11-13T09:49:48.145Z,1004.8
2017-11-13T09:50:49.558Z,1004.7
2017-11-13T09:51:50.958Z,1004.8
2017-11-13T09:52:52.358Z,1004.8
2017-11-13T09:53:53.770Z,1004.9
2017-11-13T09:54:55.167Z,1004.8
2017-11-13T09:55:56.566Z,1004.8
2017-11-13T09:56:57.979Z,1004.7
2017-11-13T09:57:59.376Z,1004.7
2017-11-13T09:59:00.773Z,1004.8
2017-11-13T10:00:02.172Z,1004.9
2017-11-13T10:01:03.576Z,1004.9
2017-11-13T10:02:04.974Z,1004.8
2017-11-13T10:03:06.371Z,1004.9
2017-11-13T10:04:07.770Z,1004.9
2017-11-13T10:05:09.168Z,1004.9
2017-11-13T10:06:10.566Z,1004.9
2017-11-13T10:07:11.966Z,1004.8
2017-11-13T10:08:13.430Z,1004.9
2017-11-13T10:09:14.844Z,1004.8
2017-11-13T10:10:16.238Z,1004.9
2017-11-13T10:11:17.638Z,1004.9
2017-11-13T10:12:19.041Z,1005.0
2017-11-13T10:13:20.441Z,1004.9
2017-11-13T10:14:21.844Z,1005.0
2017-11-13T10:15:23.245Z,1005.1
2017-11-13T10:16:24.647Z,1005.1
2017-11-13T10:17:26.048Z,1005.2
2017-11-13T10:18:27.449Z,1005.2
2017-11-13T10:19:28.853Z,1005.1
2017-11-13T10:20:30.255Z,1005.0
2017-11-13T10:21:31.661Z,1005.3
2017-11-13T10:22:33.061Z,1005.1
2017-11-13T10:23:34.465Z,1005.1
2017-11-13T10:24:38.202Z,1005.2
2017-11-13T10:25:39.609Z,1005.1
2017-11-13T10:26:41.033Z,1005.1
2017-11-13T10:27:42.445Z,1005.0
2017-11-13T10:28:43.847Z,1005.0
2017-11-13T10:29:45.248Z,1005.0
2017-11-13T10:30:46.659Z,1005.2
2017-11-13T10:31:48.064Z,1005.3
2017-11-13T10:32:49.474Z,1005.3
2017-11-13T10:33:50.873Z,1005.3
2017-11-13T10:34:52.277Z,1005.3
2017-11-13T10:35:53.679Z,1005.3
2017-11-13T10:36:55.085Z,1005.2
2017-11-13T10:37:56.495Z,1005.2
2017-11-13T10:38:57.899Z,1005.2
2017-11-13T10:39:59.304Z,1005.2
2017-11-13T10:41:00.709Z,1005.2
2017-11-13T10:42:02.124Z,1005.2
2017-11-13T10:43:03.533Z,1005.2
2017-11-13T10:44:04.943Z,1005.3
2017-11-13T10:45:06.345Z,1005.2
2017-11-13T10:46:07.750Z,1005.2
2017-11-13T10:47:09.160Z,1005.2
2017-11-13T10:48:10.568Z,1005.2
2017-11-13T10:49:11.968Z,1005.2
2017-11-13T10:50:13.436Z,1005.2
2017-11-13T10:51:14.878Z,1005.2
2017-11-13T10:52:16.281Z,1005.2
2017-11-13T10:53:17.688Z,1005.2
2017-11-13T10:54:19.053Z,1005.2
2017-11-13T10:55:20.467Z,1005.1
2017-11-13T10:56:21.930Z,1005.0
2017-11-13T10:57:23.341Z,1005.1
2017-11-13T10:58:24.745Z,1005.3
2017-11-13T10:59:27.576Z,1005.3
2017-11-13T11:00:28.987Z,1005.3
2017-11-13T11:01:30.396Z,1005.2
2017-11-13T11:02:31.803Z,1005.0
2017-11-13T11:03:33.205Z,1005.0
2017-11-13T11:04:34.609Z,1005.2
2017-11-13T11:05:36.012Z,1005.0
2017-11-13T11:06:37.419Z,1005.3
2017-11-13T11:07:38.820Z,1005.2
2017-11-13T11:08:40.227Z,1005.1
2017-11-13T11:09:41.632Z,1005.2
2017-11-13T11:10:43.035Z,1005.2
2017-11-13T11:11:44.525Z,1005.0
2017-11-13T11:12:45.929Z,1005.1
2017-11-13T11:13:47.331Z,1005.1
2017-11-13T11:14:48.738Z,1005.1
2017-11-13T11:15:50.149Z,1005.1
2017-11-13T11:16:51.559Z,1005.1
2017-11-13T11:17:52.976Z,1005.1
2017-11-13T11:18:54.392Z,1005.1
2017-11-13T11:19:55.794Z,1005.1
2017-11-13T11:20:57.200Z,1005.1
2017-11-13T11:21:58.600Z,1005.1
2017-11-13T11:23:00.074Z,1005.1
2017-11-13T11:24:01.507Z,1005.1
2017-11-13T11:25:02.936Z,1005.0
2017-11-13T11:26:04.367Z,1005.1
2017-11-13T11:27:05.810Z,1005.0
2017-11-13T11:28:07.264Z,1005.1
2017-11-13T11:29:09.404Z,1005.1
2017-11-13T11:30:10.908Z,1005.1
2017-11-13T11:31:12.319Z,1005.1
2017-11-13T11:32:13.712Z,1005.2
2017-11-13T11:33:15.132Z,1005.2
2017-11-13T11:34:17.315Z,1005.1
2017-11-13T11:35:18.718Z,1005.1
2017-11-13T11:36:20.121Z,1005.1
2017-11-13T11:37:21.527Z,1005.1
2017-11-13T11:38:22.929Z,1005.2
2017-11-13T11:39:24.337Z,1005.2
2017-11-13T11:40:25.743Z,1005.2
2017-11-13T11:41:27.197Z,1005.1
2017-11-13T11:42:28.660Z,1005.1
2017-11-13T11:43:30.064Z,1005.2
2017-11-13T11:44:31.475Z,1005.1
2017-11-13T11:45:32.884Z,1005.0
2017-11-13T11:46:34.287Z,1005.2
2017-11-13T11:47:35.697Z,1005.2
2017-11-13T11:48:37.102Z,1005.1
2017-11-13T11:49:38.519Z,1005.1
2017-11-13T11:50:39.937Z,1005.1
2017-11-13T11:51:41.343Z,1005.1
2017-11-13T11:52:42.748Z,1005.1
2017-11-13T11:53:44.148Z,1005.1
2017-11-13T11:54:45.553Z,1005.2
2017-11-13T11:55:47.020Z,1005.3
2017-11-13T11:56:48.439Z,1005.3
2017-11-13T11:57:49.842Z,1005.2
2017-11-13T11:58:51.313Z,1005.2
2017-11-13T11:59:52.717Z,1005.3
2017-11-13T12:00:54.121Z,1005.3
2017-11-13T12:01:55.521Z,1005.3
2017-11-13T12:02:56.926Z,1005.5
2017-11-13T12:03:58.330Z,1005.5
2017-11-13T12:04:59.735Z,1005.5
2017-11-13T12:06:01.225Z,1005.4
2017-11-13T12:07:02.636Z,1005.4
2017-11-13T12:08:04.041Z,1005.4
2017-11-13T12:09:05.453Z,1005.4
2017-11-13T12:10:06.851Z,1005.4
2017-11-13T12:11:08.263Z,1005.5
2017-11-13T12:12:09.665Z,1005.6
2017-11-13T12:13:11.070Z,1005.6
2017-11-13T12:14:12.477Z,1005.5
2017-11-13T12:15:13.874Z,1005.6
2017-11-13T12:16:15.277Z,1005.6
2017-11-13T12:17:16.684Z,1005.5
2017-11-13T12:18:18.088Z,1005.5
2017-11-13T12:19:19.496Z,1005.5
2017-11-13T12:20:20.901Z,1005.5
2017-11-13T12:21:22.303Z,1005.5
2017-11-13T12:22:23.703Z,1005.4
2017-11-13T12:23:25.139Z,1005.5
2017-11-13T12:24:27.230Z,1005.4
2017-11-13T12:25:28.638Z,1005.4
2017-11-13T12:26:30.041Z,1005.4
2017-11-13T12:27:31.451Z,1005.4
2017-11-13T12:28:32.853Z,1005.4
2017-11-13T12:29:36.638Z,1005.4
2017-11-13T12:30:38.040Z,1005.4
2017-11-13T12:31:39.442Z,1005.4
2017-11-13T12:32:40.845Z,1005.4
2017-11-13T12:33:42.249Z,1005.5
2017-11-13T12:34:43.651Z,1005.5
2017-11-13T12:35:45.056Z,1005.5
2017-11-13T12:36:46.463Z,1005.5
2017-11-13T12:37:47.863Z,1005.5
2017-11-13T12:38:49.286Z,1005.4
2017-11-13T12:39:50.688Z,1005.5
2017-11-13T12:40:52.092Z,1005.4
2017-11-13T12:41:53.499Z,1005.5
2017-11-13T12:42:54.909Z,1005.4
2017-11-13T12:43:56.308Z,1005.4
2017-11-13T12:44:57.711Z,1005.4
2017-11-13T12:45:59.141Z,1005.4
2017-11-13T12:47:00.544Z,1005.5
2017-11-13T12:48:01.949Z,1005.5
2017-11-13T12:49:03.351Z,1005.5
2017-11-13T12:50:04.754Z,1005.5
2017-11-13T12:51:06.154Z,1005.5
2017-11-13T12:52:07.560Z,1005.6
2017-11-13T12:53:08.967Z,1005.6
2017-11-13T12:54:10.363Z,1005.5